Time;durP1;ratioP1;P1;durP2;ratioP2;P2;SDS_P1;SDS_P2;PMS_P1;PMS_P2;Temp;Humidity;BMP_temperature;BMP_pressure;BME280_temperature;BME280_humidity;BME280_pressure;Samples;Min_cycle;Max_cycle;Signal;HPM_P1;HPM_P2
2021/12/29 00:01:28;;;;;;;4.85;2.72;;;21.00;61.00;;;;;;4984497;28;87481;-83
2021/12/29 00:03:59;;;;;;;5.40;2.60;;;21.00;60.90;;;;;;4985720;28;87968;-82
2021/12/29 00:06:26;;;;;;;4.40;2.00;;;21.00;61.00;;;;;;4981819;28;87084;-81
2021/12/29 00:08:55;;;;;;;4.47;2.47;;;20.90;60.70;;;;;;4983535;28;87597;-82
2021/12/29 00:11:23;;;;;;;4.32;2.20;;;20.90;60.80;;;;;;4981994;28;88917;-84
2021/12/29 00:13:49;;;;;;;3.90;2.20;;;20.90;61.00;;;;;;4966977;28;86761;-84
2021/12/29 00:16:14;;;;;;;3.05;2.05;;;20.90;60.80;;;;;;4986061;28;87015;-84
2021/12/29 00:18:44;;;;;;;4.30;2.30;;;20.90;60.70;;;;;;4991224;28;87819;-83
2021/12/29 00:21:11;;;;;;;;;;;20.90;60.90;;;;;;4983993;28;86394;-82
2021/12/29 00:23:41;;;;;;;2.03;1.70;;;20.90;60.70;;;;;;4981252;28;87678;-82
2021/12/29 00:26:11;;;;;;;3.63;2.20;;;20.90;60.70;;;;;;4982595;28;87678;-82
2021/12/29 00:28:40;;;;;;;;;;;20.90;60.60;;;;;;4984727;28;88971;-82
2021/12/29 00:31:06;;;;;;;3.47;2.13;;;20.90;60.70;;;;;;4986569;28;87282;-82
2021/12/29 00:33:32;;;;;;;2.70;1.90;;;20.90;60.70;;;;;;4978579;28;87109;-81
2021/12/29 00:35:59;;;;;;;2.97;2.08;;;20.90;60.60;;;;;;4982635;28;89604;-85
2021/12/29 00:38:25;;;;;;;2.58;1.60;;;20.90;60.70;;;;;;4981792;28;88037;-82
2021/12/29 00:40:51;;;;;;;4.45;2.30;;;20.80;60.70;;;;;;4983046;28;87980;-82
2021/12/29 00:43:17;;;;;;;3.03;2.05;;;20.90;60.60;;;;;;4981201;28;87151;-82
2021/12/29 00:45:47;;;;;;;3.55;2.28;;;20.80;60.60;;;;;;4984790;28;87864;-84
2021/12/29 00:48:15;;;;;;;3.78;2.30;;;20.80;60.30;;;;;;4985668;28;87653;-82
2021/12/29 00:50:42;;;;;;;3.70;1.90;;;20.80;60.40;;;;;;4983171;28;87486;-83
2021/12/29 00:53:10;;;;;;;3.38;2.10;;;20.80;60.50;;;;;;4980534;28;88443;-83
2021/12/29 00:55:42;;;;;;;4.00;2.35;;;20.80;60.40;;;;;;4987246;28;88783;-82
2021/12/29 00:58:08;;;;;;;3.20;2.22;;;20.80;60.40;;;;;;4982884;28;89516;-81
2021/12/29 01:00:37;;;;;;;3.30;1.98;;;20.80;60.50;;;;;;4984283;28;87640;-86
2021/12/29 01:03:10;;;;;;;2.85;2.25;;;20.80;60.50;;;;;;4977516;28;87467;-82
2021/12/29 01:05:37;;;;;;;2.50;1.80;;;20.80;60.60;;;;;;4982704;28;86946;-83
2021/12/29 01:08:06;;;;;;;3.15;2.10;;;20.80;60.60;;;;;;4986470;28;87487;-83
2021/12/29 01:10:32;;;;;;;4.03;2.22;;;20.80;60.60;;;;;;4981431;28;86684;-83
2021/12/29 01:13:01;;;;;;;3.53;2.15;;;20.80;60.60;;;;;;4979182;28;87698;-82
2021/12/29 01:15:37;;;;;;;2.80;2.03;;;20.80;60.60;;;;;;4979305;28;88219;-82
2021/12/29 01:18:05;;;;;;;2.95;2.00;;;20.80;60.50;;;;;;4981345;28;87774;-81
2021/12/29 01:20:32;;;;;;;3.90;2.20;;;20.80;60.50;;;;;;4980244;28;90314;-82
2021/12/29 01:23:01;;;;;;;3.30;2.20;;;20.80;60.30;;;;;;4981092;28;87098;-82
2021/12/29 01:25:30;;;;;;;3.53;1.92;;;20.80;60.40;;;;;;4986624;28;87732;-82
2021/12/29 01:27:56;;;;;;;4.18;2.40;;;20.80;60.30;;;;;;4982137;28;87056;-82
2021/12/29 01:30:26;;;;;;;3.13;1.98;;;20.70;60.30;;;;;;4980629;28;87574;-83
2021/12/29 01:32:52;;;;;;;3.30;2.20;;;20.70;60.30;;;;;;4989159;28;86971;-83
2021/12/29 01:35:17;;;;;;;3.25;2.05;;;20.70;60.30;;;;;;4980928;28;86532;-82
2021/12/29 01:37:44;;;;;;;3.00;1.90;;;20.70;60.30;;;;;;4983303;28;89638;-82
2021/12/29 01:40:14;;;;;;;3.83;2.30;;;20.70;60.40;;;;;;4984679;28;87476;-82
2021/12/29 01:42:42;;;;;;;2.90;2.08;;;20.70;60.40;;;;;;4980166;28;89026;-83
2021/12/29 01:45:22;;;;;;;3.10;2.22;;;20.70;60.20;;;;;;4984736;28;87604;-82
2021/12/29 01:47:48;;;;;;;2.47;1.90;;;20.70;60.20;;;;;;4988503;28;86824;-82
2021/12/29 01:50:15;;;;;;;2.47;1.80;;;20.70;60.30;;;;;;4982931;28;87885;-82
2021/12/29 01:52:42;;;;;;;2.38;1.90;;;20.70;60.30;;;;;;4979047;28;86855;-84
2021/12/29 01:55:13;;;;;;;2.78;1.85;;;20.70;60.30;;;;;;4983534;28;87745;-82
2021/12/29 01:57:43;;;;;;;3.70;2.20;;;20.70;60.30;;;;;;4984433;28;89875;-84
2021/12/29 02:00:18;;;;;;;3.05;1.90;;;20.70;60.10;;;;;;4981451;28;87482;-84
2021/12/29 02:02:46;;;;;;;2.25;1.65;;;20.70;60.30;;;;;;4981623;28;86980;-84
2021/12/29 02:05:12;;;;;;;3.85;2.03;;;20.70;60.20;;;;;;4980839;28;87430;-82
2021/12/29 02:07:38;;;;;;;3.20;2.22;;;20.70;60.20;;;;;;4978530;28;91298;-82
2021/12/29 02:10:06;;;;;;;2.95;1.80;;;20.60;60.20;;;;;;4979593;28;91089;-82
2021/12/29 02:12:32;;;;;;;2.63;1.73;;;20.60;60.00;;;;;;4981680;28;86940;-82
2021/12/29 02:14:59;;;;;;;2.45;1.58;;;20.60;59.90;;;;;;4976303;28;88286;-82
2021/12/29 02:17:27;;;;;;;3.25;2.00;;;20.60;60.20;;;;;;4978400;28;88789;-81
2021/12/29 02:19:56;;;;;;;3.60;2.13;;;20.60;60.00;;;;;;4979321;28;87782;-82
2021/12/29 02:22:34;;;;;;;2.47;2.15;;;20.60;60.00;;;;;;4984481;28;87600;-82
2021/12/29 02:26:00;;;;;;;2.63;1.88;;;20.60;60.20;;;;;;4981413;28;86992;-82
2021/12/29 02:27:55;;;;;;;3.50;2.08;;;20.60;60.00;;;;;;4971798;28;87490;-82
2021/12/29 02:30:26;;;;;;;2.70;1.80;;;20.60;59.90;;;;;;4986778;28;88186;-82
2021/12/29 02:33:02;;;;;;;2.65;1.75;;;20.60;60.00;;;;;;4983395;28;87966;-83
2021/12/29 02:35:29;;;;;;;2.75;1.85;;;20.60;60.00;;;;;;4977881;28;87541;-82
2021/12/29 02:37:55;;;;;;;3.25;1.98;;;20.60;59.90;;;;;;4976343;28;87838;-82
2021/12/29 02:40:21;;;;;;;2.42;1.80;;;20.60;59.90;;;;;;4981680;28;88803;-84
2021/12/29 02:42:49;;;;;;;2.40;1.73;;;20.60;60.00;;;;;;4977752;28;87268;-82
2021/12/29 02:45:21;;;;;;;2.60;1.65;;;20.60;60.00;;;;;;4976837;28;87057;-83
2021/12/29 02:47:49;;;;;;;3.08;1.75;;;20.60;59.90;;;;;;4976005;28;88224;-81
2021/12/29 02:50:18;;;;;;;3.17;1.63;;;20.60;59.90;;;;;;4976952;28;88915;-82
2021/12/29 02:52:53;;;;;;;3.20;2.17;;;20.50;60.00;;;;;;4961378;28;87990;-82
2021/12/29 02:55:20;;;;;;;2.08;1.65;;;20.60;59.90;;;;;;4981041;28;87979;-82
2021/12/29 02:57:46;;;;;;;2.83;1.77;;;20.50;59.90;;;;;;4976230;28;91745;-82
2021/12/29 03:00:15;;;;;;;2.67;1.77;;;20.50;59.90;;;;;;4977240;28;87806;-81
2021/12/29 03:02:42;;;;;;;2.27;1.80;;;20.50;59.80;;;;;;4977492;28;87990;-81
2021/12/29 03:05:19;;;;;;;2.13;1.70;;;20.50;59.90;;;;;;4978949;28;87446;-81
2021/12/29 03:07:46;;;;;;;2.40;1.98;;;20.50;60.10;;;;;;4977081;28;89234;-81
2021/12/29 03:10:12;;;;;;;3.60;1.98;;;20.50;59.80;;;;;;4974981;28;87538;-84
2021/12/29 03:12:38;;;;;;;2.80;2.00;;;20.50;60.00;;;;;;4975487;28;88587;-83
2021/12/29 03:15:04;;;;;;;2.15;1.65;;;20.50;59.90;;;;;;4978247;28;87172;-82
2021/12/29 03:17:31;;;;;;;3.65;1.50;;;20.50;60.00;;;;;;4986714;28;88045;-81
2021/12/29 03:19:58;;;;;;;2.10;1.70;;;20.50;60.00;;;;;;4986091;28;87953;-81
2021/12/29 03:22:26;;;;;;;3.53;1.80;;;20.50;60.20;;;;;;4982463;28;88439;-82
2021/12/29 03:24:54;;;;;;;2.85;1.88;;;20.50;60.80;;;;;;4979504;28;87013;-82
2021/12/29 03:27:20;;;;;;;2.22;1.55;;;20.50;60.10;;;;;;4980570;28;87245;-82
2021/12/29 03:29:45;;;;;;;2.38;1.70;;;20.50;60.10;;;;;;4985068;28;87289;-83
2021/12/29 03:32:20;;;;;;;2.78;1.60;;;20.50;60.10;;;;;;4987227;28;87138;-82
2021/12/29 03:34:47;;;;;;;2.22;1.52;;;20.50;60.10;;;;;;4986372;28;87781;-82
2021/12/29 03:37:14;;;;;;;2.47;1.50;;;20.50;59.90;;;;;;4982757;28;88172;-84
2021/12/29 03:39:40;;;;;;;2.30;1.50;;;20.50;60.00;;;;;;4983890;28;87595;-85
2021/12/29 03:42:06;;;;;;;2.97;1.70;;;20.50;59.80;;;;;;4976800;28;87588;-82
2021/12/29 03:44:33;;;;;;;3.22;1.63;;;20.50;60.00;;;;;;4972900;28;90544;-83
2021/12/29 03:47:07;;;;;;;2.25;1.60;;;20.50;60.00;;;;;;4983408;28;88813;-82
2021/12/29 03:49:34;;;;;;;2.33;1.77;;;20.50;59.90;;;;;;4977620;28;88339;-83
2021/12/29 03:52:00;;;;;;;2.35;1.77;;;20.40;59.90;;;;;;4983724;28;87125;-84
2021/12/29 03:54:26;;;;;;;2.58;1.67;;;20.50;59.80;;;;;;4987267;28;89688;-81
2021/12/29 03:56:52;;;;;;;2.50;1.70;;;20.40;59.90;;;;;;4984779;28;87819;-82
2021/12/29 03:59:19;;;;;;;1.98;1.40;;;20.40;59.80;;;;;;4983460;28;88001;-81
2021/12/29 04:01:46;;;;;;;1.77;1.40;;;20.40;59.70;;;;;;4984405;28;87426;-82
2021/12/29 04:04:13;;;;;;;1.83;1.40;;;20.40;59.80;;;;;;4979125;28;86535;-82
2021/12/29 04:06:39;;;;;;;2.75;1.83;;;20.40;59.80;;;;;;4973906;28;87240;-83
2021/12/29 04:09:05;;;;;;;2.60;1.70;;;20.40;59.70;;;;;;4983851;28;88106;-82
2021/12/29 04:11:31;;;;;;;1.95;1.60;;;20.40;59.90;;;;;;4983987;28;88408;-82
2021/12/29 04:13:56;;;;;;;2.72;1.58;;;20.40;59.80;;;;;;4983916;28;87387;-82
2021/12/29 04:16:24;;;;;;;1.95;1.38;;;20.40;59.90;;;;;;4983220;28;87886;-82
2021/12/29 04:19:06;;;;;;;2.38;1.55;;;20.40;59.80;;;;;;4981212;28;89572;-82
2021/12/29 04:21:37;;;;;;;2.20;1.75;;;20.30;59.80;;;;;;4980833;28;86857;-81
2021/12/29 04:24:26;;;;;;;2.13;1.60;;;20.30;59.60;;;;;;4981284;28;87341;-82
2021/12/29 04:26:51;;;;;;;1.70;1.50;;;20.40;59.80;;;;;;4981452;28;87676;-81
2021/12/29 04:29:17;;;;;;;1.83;1.40;;;20.30;59.70;;;;;;4966226;28;86903;-82
2021/12/29 04:31:45;;;;;;;2.13;1.70;;;20.30;59.50;;;;;;4982114;28;87954;-81
2021/12/29 04:34:11;;;;;;;2.30;1.60;;;20.30;59.60;;;;;;4979811;28;87009;-82
2021/12/29 04:36:36;;;;;;;1.95;1.70;;;20.30;59.70;;;;;;4977452;28;88721;-82
2021/12/29 04:39:05;;;;;;;2.50;1.70;;;20.30;59.60;;;;;;4984516;28;88373;-83
2021/12/29 04:41:31;;;;;;;2.50;1.80;;;20.30;59.60;;;;;;4981200;28;87602;-82
2021/12/29 04:44:09;;;;;;;1.88;1.40;;;20.30;59.60;;;;;;4981197;28;87865;-83
2021/12/29 04:46:38;;;;;;;2.30;1.73;;;20.30;59.50;;;;;;4981519;28;88094;-83
2021/12/29 04:49:29;;;;;;;2.47;1.50;;;20.30;59.60;;;;;;4980731;28;87407;-82
2021/12/29 04:52:03;;;;;;;2.30;1.50;;;20.30;59.60;;;;;;4982068;28;87004;-82
2021/12/29 04:54:32;;;;;;;1.60;1.45;;;20.30;59.60;;;;;;4980198;28;88012;-83
2021/12/29 04:56:58;;;;;;;2.20;1.60;;;20.30;59.50;;;;;;4980407;28;88359;-81
2021/12/29 04:59:26;;;;;;;1.90;1.52;;;20.30;59.60;;;;;;4981424;28;87886;-84
2021/12/29 05:01:52;;;;;;;3.22;1.67;;;20.30;59.50;;;;;;4982610;28;88385;-81
2021/12/29 05:04:33;;;;;;;2.20;1.48;;;20.30;59.60;;;;;;4994550;28;89272;-81
2021/12/29 05:09:47;;;;;;;1.92;1.55;;;20.30;59.30;;;;;;4985066;28;87637;-81
2021/12/29 05:12:14;;;;;;;1.90;1.38;;;20.30;59.40;;;;;;4986723;28;87937;-82
2021/12/29 05:14:41;;;;;;;2.50;1.60;;;20.20;59.50;;;;;;4983312;28;87465;-83
2021/12/29 05:17:07;;;;;;;2.22;1.40;;;20.20;59.40;;;;;;4987035;28;88861;-82
2021/12/29 05:19:38;;;;;;;1.60;1.50;;;20.30;59.60;;;;;;4982818;28;87693;-81
2021/12/29 05:22:05;;;;;;;2.03;1.40;;;20.20;59.40;;;;;;4982773;28;87677;-82
2021/12/29 05:24:32;;;;;;;1.60;1.40;;;20.30;59.50;;;;;;4985541;28;86853;-81
2021/12/29 05:26:58;;;;;;;2.67;1.63;;;20.20;59.50;;;;;;4982296;28;88880;-83
2021/12/29 05:29:26;;;;;;;2.40;1.58;;;20.20;59.30;;;;;;4982339;28;87518;-81
2021/12/29 05:31:52;;;;;;;2.60;1.55;;;20.20;59.30;;;;;;4985284;28;87332;-82
2021/12/29 05:34:19;;;;;;;1.60;1.40;;;20.20;59.50;;;;;;4983069;28;89375;-83
2021/12/29 05:36:46;;;;;;;2.72;1.50;;;20.20;59.30;;;;;;4983873;28;87779;-84
2021/12/29 05:39:35;;;;;;;1.65;1.30;;;20.20;59.30;;;;;;4984072;28;87613;-81
2021/12/29 05:42:04;;;;;;;1.90;1.30;;;20.20;59.30;;;;;;4982394;28;87503;-81
2021/12/29 05:44:34;;;;;;;1.52;1.30;;;20.20;59.50;;;;;;4983442;28;88186;-81
2021/12/29 05:47:00;;;;;;;1.48;1.30;;;20.20;59.50;;;;;;4982521;28;88191;-83
2021/12/29 05:49:25;;;;;;;1.67;1.30;;;20.20;59.40;;;;;;4980247;28;87969;-81
2021/12/29 05:51:53;;;;;;;2.60;1.38;;;20.20;59.50;;;;;;4981179;28;89071;-81
2021/12/29 05:54:21;;;;;;;2.22;1.45;;;20.20;59.40;;;;;;4981440;28;87990;-82
2021/12/29 05:56:49;;;;;;;2.05;1.40;;;20.20;59.60;;;;;;4979682;28;87988;-81
2021/12/29 05:59:16;;;;;;;2.03;1.70;;;20.20;59.40;;;;;;4979843;28;87838;-82
2021/12/29 06:01:44;;;;;;;1.90;1.50;;;20.20;59.40;;;;;;4980611;28;87528;-82
2021/12/29 06:04:10;;;;;;;2.33;1.70;;;20.10;59.50;;;;;;4968064;28;89506;-82
2021/12/29 06:06:36;;;;;;;2.42;1.50;;;20.20;59.40;;;;;;4980134;28;87001;-81
2021/12/29 06:09:03;;;;;;;1.75;1.30;;;20.20;59.50;;;;;;4975666;28;87332;-84
2021/12/29 06:11:28;;;;;;;2.03;1.30;;;20.20;59.50;;;;;;4977722;28;87229;-82
2021/12/29 06:13:56;;;;;;;2.00;1.45;;;20.20;59.50;;;;;;4978039;28;90677;-81
2021/12/29 06:16:21;;;;;;;2.25;1.90;;;20.20;59.50;;;;;;4980778;28;90723;-84
2021/12/29 06:18:47;;;;;;;3.00;1.50;;;20.20;58.90;;;;;;4991611;22;87377;-70
2021/12/29 06:21:16;;;;;;;1.83;1.60;;;20.20;59.20;;;;;;4969655;28;86918;-70
2021/12/29 06:23:47;;;;;;;4.75;1.83;;;20.30;59.50;;;;;;4970081;28;87878;-71
2021/12/29 06:26:14;;;;;;;2.13;1.85;;;20.30;59.70;;;;;;4969859;28;88018;-72
2021/12/29 06:28:40;;;;;;;2.72;1.70;;;20.40;59.70;;;;;;4969367;28;89507;-72
2021/12/29 06:31:06;;;;;;;2.47;1.80;;;20.40;59.60;;;;;;4969583;28;87585;-71
2021/12/29 06:33:31;;;;;;;1.98;1.48;;;20.50;59.70;;;;;;4969485;28;87294;-70
2021/12/29 06:35:57;;;;;;;2.92;1.80;;;20.50;59.80;;;;;;4969744;28;88946;-71
2021/12/29 06:38:23;;;;;;;3.47;1.80;;;20.50;59.10;;;;;;4969855;28;88057;-73
2021/12/29 06:40:49;;;;;;;2.25;1.63;;;20.60;58.50;;;;;;4968951;28;88303;-72
2021/12/29 06:43:15;;;;;;;2.17;1.50;;;20.60;58.70;;;;;;4961191;28;87982;-73
2021/12/29 06:45:41;;;;;;;2.67;1.50;;;20.60;59.00;;;;;;4969812;28;87949;-70
2021/12/29 06:48:07;;;;;;;2.53;1.40;;;20.60;58.50;;;;;;4969690;28;88659;-73
2021/12/29 06:50:33;;;;;;;5.60;1.45;;;20.60;58.50;;;;;;4969975;28;87823;-70
2021/12/29 06:52:59;;;;;;;5.32;1.70;;;20.70;58.90;;;;;;4973271;28;87143;-70
2021/12/29 06:55:24;;;;;;;2.60;1.20;;;20.70;59.10;;;;;;4973277;28;87731;-71
2021/12/29 06:57:50;;;;;;;3.35;1.40;;;20.70;58.70;;;;;;4975914;28;87988;-72
2021/12/29 07:00:16;;;;;;;3.17;1.50;;;20.70;59.00;;;;;;4972848;28;88032;-72
2021/12/29 07:02:42;;;;;;;2.40;1.17;;;20.70;59.10;;;;;;4972191;28;87954;-71
2021/12/29 07:05:08;;;;;;;3.17;1.67;;;20.60;59.30;;;;;;4967181;28;88547;-70
2021/12/29 07:07:34;;;;;;;4.82;1.60;;;20.70;59.10;;;;;;4971329;28;88157;-72
2021/12/29 07:10:00;;;;;;;1.92;1.52;;;20.70;59.00;;;;;;4971892;28;86977;-70
2021/12/29 07:12:25;;;;;;;5.18;1.48;;;20.70;59.20;;;;;;4972711;28;87704;-70
2021/12/29 07:14:51;;;;;;;11.68;1.92;;;20.70;59.00;;;;;;4967987;28;87952;-70
2021/12/29 07:17:16;;;;;;;7.95;2.17;;;20.70;59.20;;;;;;4971699;28;88109;-70
2021/12/29 07:19:42;;;;;;;4.43;2.17;;;20.70;58.60;;;;;;4972417;28;87955;-70
2021/12/29 07:22:08;;;;;;;3.17;1.75;;;20.70;58.90;;;;;;4972358;28;87223;-73
2021/12/29 07:24:34;;;;;;;2.75;1.70;;;20.70;59.20;;;;;;4971979;28;88549;-70
2021/12/29 07:27:01;;;;;;;2.70;1.60;;;20.70;59.00;;;;;;4971227;28;88367;-70
2021/12/29 07:29:27;;;;;;;4.38;1.73;;;20.60;59.10;;;;;;4971655;28;89259;-72
2021/12/29 07:31:53;;;;;;;7.45;1.90;;;20.60;59.10;;;;;;4971927;28;87751;-71
2021/12/29 07:34:20;;;;;;;3.63;1.80;;;20.60;59.10;;;;;;4971969;28;88267;-71
2021/12/29 07:36:47;;;;;;;5.28;1.98;;;20.60;59.20;;;;;;4971556;28;87688;-69
2021/12/29 07:39:14;;;;;;;4.00;1.90;;;20.60;59.10;;;;;;4971577;28;87996;-71
2021/12/29 07:41:40;;;;;;;4.88;1.63;;;20.60;59.10;;;;;;4972775;28;86966;-72
2021/12/29 07:44:07;;;;;;;5.13;2.20;;;20.60;59.00;;;;;;4972644;28;88210;-70
2021/12/29 07:46:34;;;;;;;4.50;1.77;;;20.60;58.90;;;;;;4971602;28;90051;-70
2021/12/29 07:49:01;;;;;;;5.85;1.70;;;20.60;58.80;;;;;;4971222;28;87060;-70
2021/12/29 07:51:27;;;;;;;5.28;2.15;;;20.60;58.90;;;;;;4971749;28;87550;-71
2021/12/29 07:53:52;;;;;;;6.88;2.03;;;20.60;59.00;;;;;;4971001;28;89344;-70
2021/12/29 07:56:18;;;;;;;26.17;4.75;;;20.60;58.90;;;;;;4970865;28;88800;-72
2021/12/29 07:58:44;;;;;;;31.23;7.70;;;20.60;58.90;;;;;;4972703;28;87346;-70
2021/12/29 08:01:09;;;;;;;28.30;6.35;;;20.60;58.80;;;;;;4971252;28;87691;-70
2021/12/29 08:03:36;;;;;;;18.63;5.28;;;20.60;59.00;;;;;;4972001;28;87802;-70
2021/12/29 08:06:02;;;;;;;30.13;6.32;;;20.60;59.20;;;;;;4971154;28;88112;-70
2021/12/29 08:08:27;;;;;;;28.08;5.95;;;20.50;59.00;;;;;;4967124;28;87884;-72
2021/12/29 08:10:53;;;;;;;27.13;5.80;;;20.60;59.40;;;;;;4970404;28;87162;-71
2021/12/29 08:13:19;;;;;;;25.75;5.60;;;20.60;59.40;;;;;;4970636;28;87190;-72
2021/12/29 08:15:45;;;;;;;22.15;5.88;;;20.60;59.70;;;;;;4971456;28;88007;-70
2021/12/29 08:18:11;;;;;;;22.13;6.03;;;20.60;59.70;;;;;;4969333;28;88596;-70
2021/12/29 08:20:36;;;;;;;24.63;6.30;;;20.70;59.80;;;;;;4970624;28;87601;-73
2021/12/29 08:23:06;;;;;;;32.25;7.95;;;20.70;60.00;;;;;;4970228;28;87986;-74
2021/12/29 08:25:32;;;;;;;30.98;6.68;;;20.70;59.70;;;;;;4971004;28;88880;-71
2021/12/29 08:27:58;;;;;;;33.97;7.28;;;20.70;60.00;;;;;;4971132;28;87447;-71
2021/12/29 08:30:25;;;;;;;26.88;6.68;;;20.70;60.00;;;;;;4927897;28;89982;-70
2021/12/29 08:32:50;;;;;;;25.45;6.72;;;20.70;60.40;;;;;;4969760;28;88163;-70
2021/12/29 08:35:17;;;;;;;41.75;8.80;;;20.70;60.20;;;;;;4970734;28;87933;-71
2021/12/29 08:37:43;;;;;;;30.45;7.65;;;20.70;60.10;;;;;;4971912;28;87825;-70
2021/12/29 08:40:10;;;;;;;29.13;7.93;;;20.70;59.40;;;;;;4971575;28;87922;-71
2021/12/29 08:42:37;;;;;;;22.95;6.93;;;20.70;59.90;;;;;;4968891;28;91029;-72
2021/12/29 08:45:05;;;;;;;29.85;8.52;;;20.70;59.90;;;;;;4971442;28;89404;-72
2021/12/29 08:47:30;;;;;;;28.75;8.30;;;20.80;60.40;;;;;;4971228;28;87417;-71
2021/12/29 08:49:56;;;;;;;34.70;7.72;;;20.80;60.50;;;;;;4966736;28;87959;-72
2021/12/29 08:52:22;;;;;;;35.80;8.75;;;20.80;61.20;;;;;;4969040;28;87603;-72
2021/12/29 08:54:48;;;;;;;32.03;8.07;;;20.80;60.80;;;;;;4970112;28;88440;-75
2021/12/29 08:57:14;;;;;;;25.80;8.10;;;20.80;60.80;;;;;;4968388;28;87577;-72
2021/12/29 08:59:39;;;;;;;32.55;7.25;;;20.80;61.00;;;;;;4969556;28;86645;-72
2021/12/29 09:02:05;;;;;;;30.45;8.18;;;20.80;61.00;;;;;;4967986;28;89009;-71
2021/12/29 09:04:31;;;;;;;27.88;7.95;;;20.80;60.80;;;;;;4968689;28;88585;-71
2021/12/29 09:06:56;;;;;;;29.65;7.63;;;20.80;61.10;;;;;;4968270;28;88734;-72
2021/12/29 09:09:22;;;;;;;27.63;8.02;;;20.80;61.00;;;;;;4970210;28;87659;-74
2021/12/29 09:11:48;;;;;;;26.00;7.13;;;20.80;61.00;;;;;;4970572;28;87971;-73
2021/12/29 09:14:13;;;;;;;29.25;8.00;;;20.80;61.10;;;;;;4969425;28;87762;-73
2021/12/29 09:16:40;;;;;;;22.73;7.32;;;20.80;60.90;;;;;;4968282;28;89488;-74
2021/12/29 09:19:11;;;;;;;31.20;8.75;;;20.80;60.90;;;;;;4970806;28;88616;-70
2021/12/29 09:21:38;;;;;;;30.80;8.63;;;20.80;59.90;;;;;;4969682;28;88051;-73
2021/12/29 09:24:05;;;;;;;28.40;8.88;;;20.80;60.60;;;;;;4967040;28;89354;-71
2021/12/29 09:26:31;;;;;;;25.13;7.43;;;20.80;60.70;;;;;;4969420;28;87641;-71
2021/12/29 09:29:06;;;;;;;33.60;9.02;;;20.80;60.70;;;;;;4976646;28;87667;-70
2021/12/29 09:31:53;;;;;;;25.42;7.97;;;20.80;60.40;;;;;;4975122;28;89084;-72
2021/12/29 09:34:22;;;;;;;22.83;7.60;;;20.80;60.60;;;;;;4974206;28;88267;-73
2021/12/29 09:36:48;;;;;;;25.90;8.13;;;20.80;60.20;;;;;;4972184;28;87495;-73
2021/12/29 09:39:14;;;;;;;25.90;8.52;;;20.80;60.60;;;;;;4968499;28;87893;-71
2021/12/29 09:41:39;;;;;;;28.52;8.20;;;20.80;61.20;;;;;;4968658;28;88060;-71
2021/12/29 09:44:09;;;;;;;29.23;7.82;;;20.80;61.40;;;;;;4966529;28;90726;-73
2021/12/29 09:46:36;;;;;;;27.75;8.18;;;20.80;61.10;;;;;;4970093;28;87605;-74
2021/12/29 09:49:02;;;;;;;30.45;8.18;;;20.80;60.60;;;;;;4970279;28;87842;-72
2021/12/29 09:51:28;;;;;;;25.63;7.35;;;20.80;60.40;;;;;;4968520;28;90829;-71
2021/12/29 09:53:54;;;;;;;24.42;7.60;;;20.80;60.80;;;;;;4969534;28;87741;-72
2021/12/29 09:56:20;;;;;;;21.73;7.38;;;20.80;60.90;;;;;;4969383;28;88766;-71
2021/12/29 09:58:46;;;;;;;25.67;8.10;;;20.80;61.00;;;;;;4969013;28;87926;-73
2021/12/29 10:01:12;;;;;;;24.00;7.30;;;20.80;61.00;;;;;;4969306;28;88239;-68
2021/12/29 10:03:38;;;;;;;27.25;8.20;;;20.80;61.10;;;;;;4969718;28;88124;-68
2021/12/29 10:06:06;;;;;;;20.35;7.18;;;20.80;60.90;;;;;;4969846;28;87695;-67
2021/12/29 10:08:35;;;;;;;24.40;7.17;;;20.80;60.70;;;;;;4968852;28;87257;-69
2021/12/29 10:11:06;;;;;;;25.43;7.40;;;20.80;61.70;;;;;;4967496;28;89954;-67
2021/12/29 10:13:37;;;;;;;22.48;6.70;;;20.80;60.80;;;;;;4970355;28;87014;-67
2021/12/29 10:16:08;;;;;;;24.65;7.43;;;20.90;61.10;;;;;;4970174;28;87174;-68
2021/12/29 10:18:37;;;;;;;20.40;7.28;;;20.90;61.20;;;;;;4969698;28;88179;-67
2021/12/29 10:21:12;;;;;;;18.90;6.28;;;20.80;60.90;;;;;;4968959;28;88618;-67
2021/12/29 10:23:48;;;;;;;25.25;8.10;;;20.90;61.30;;;;;;4964681;28;91825;-68
2021/12/29 10:26:22;;;;;;;23.98;7.80;;;20.80;62.80;;;;;;4969823;28;87823;-68
2021/12/29 10:29:00;;;;;;;25.77;8.13;;;20.80;66.40;;;;;;4967617;28;89896;-67
2021/12/29 10:31:32;;;;;;;24.77;8.27;;;20.80;74.30;;;;;;4967420;28;88116;-67
2021/12/29 10:34:04;;;;;;;20.65;6.80;;;20.80;73.70;;;;;;4966096;28;91257;-68
2021/12/29 10:37:09;;;;;;;20.67;5.95;;;20.80;71.10;;;;;;4964502;28;87122;-67
2021/12/29 10:39:40;;;;;;;19.30;7.05;;;20.70;66.80;;;;;;4927278;28;87280;-67
2021/12/29 10:42:09;;;;;;;18.17;6.45;;;20.70;68.60;;;;;;4927380;28;87664;-67
2021/12/29 10:44:44;;;;;;;;;;;20.70;70.30;;;;;;4948574;28;87860;-67
2021/12/29 10:47:14;;;;;;;19.38;6.40;;;20.70;70.50;;;;;;4969466;28;88839;-67
2021/12/29 10:50:07;;;;;;;20.90;6.72;;;20.70;68.20;;;;;;4968994;28;87746;-67
2021/12/29 10:52:44;;;;;;;18.60;6.45;;;20.70;67.90;;;;;;4968667;28;88569;-68
2021/12/29 10:55:39;;;;;;;16.30;6.28;;;20.70;67.10;;;;;;4968835;28;89175;-67
2021/12/29 10:58:14;;;;;;;20.25;6.10;;;20.70;67.30;;;;;;4969126;28;88170;-68
2021/12/29 11:00:47;;;;;;;17.77;6.22;;;20.70;66.60;;;;;;4967509;28;90434;-67
2021/12/29 11:03:21;;;;;;;17.75;6.47;;;20.70;66.60;;;;;;4969066;28;88069;-68
2021/12/29 11:05:58;;;;;;;18.88;6.78;;;20.70;66.70;;;;;;4969237;28;87421;-67
2021/12/29 11:08:25;;;;;;;22.90;6.50;;;20.70;66.60;;;;;;4968606;28;87657;-68
2021/12/29 11:10:56;;;;;;;18.40;6.15;;;20.70;66.90;;;;;;4969096;28;87956;-68
2021/12/29 11:13:27;;;;;;;15.10;5.80;;;20.80;66.90;;;;;;4969018;28;88648;-67
2021/12/29 11:15:55;;;;;;;19.17;6.35;;;20.80;66.40;;;;;;4968686;28;87865;-67
2021/12/29 11:18:21;;;;;;;15.07;5.07;;;20.70;66.50;;;;;;4969364;28;87236;-67
2021/12/29 11:20:53;;;;;;;20.25;5.63;;;20.70;66.50;;;;;;4965620;28;87699;-67
2021/12/29 11:23:20;;;;;;;13.63;5.70;;;20.70;66.10;;;;;;4969346;28;87967;-67
2021/12/29 11:25:47;;;;;;;15.98;5.60;;;20.70;65.20;;;;;;4966376;28;89330;-67
2021/12/29 11:28:29;;;;;;;16.58;5.50;;;20.70;65.50;;;;;;4969043;28;87404;-67
2021/12/29 11:30:57;;;;;;;16.85;5.03;;;20.70;64.80;;;;;;4968005;28;86264;-67
2021/12/29 11:33:24;;;;;;;13.38;5.75;;;20.70;65.10;;;;;;4968306;28;88601;-68
2021/12/29 11:35:53;;;;;;;14.43;5.13;;;20.70;65.40;;;;;;4968051;28;88116;-68
2021/12/29 11:38:21;;;;;;;13.57;5.28;;;20.70;65.40;;;;;;4971013;28;88594;-67
2021/12/29 11:40:50;;;;;;;17.23;5.07;;;20.70;65.40;;;;;;4972294;28;87834;-68
2021/12/29 11:43:19;;;;;;;17.25;6.10;;;20.70;64.60;;;;;;4971466;28;88284;-67
2021/12/29 11:45:48;;;;;;;20.33;5.50;;;20.70;65.00;;;;;;4972332;28;87737;-68
2021/12/29 11:48:15;;;;;;;17.42;5.53;;;20.70;64.30;;;;;;4972194;28;87416;-68
2021/12/29 11:50:49;;;;;;;15.45;5.07;;;20.70;63.60;;;;;;4971950;28;87081;-67
2021/12/29 11:53:30;;;;;;;14.52;5.03;;;20.70;63.80;;;;;;4971650;28;89562;-67
2021/12/29 11:56:06;;;;;;;13.18;4.80;;;20.70;64.10;;;;;;4970725;28;88558;-68
2021/12/29 11:58:33;;;;;;;16.30;4.95;;;20.70;63.80;;;;;;4971126;28;87437;-67
2021/12/29 12:01:21;;;;;;;15.38;4.95;;;20.70;63.90;;;;;;4971850;28;88338;-68
2021/12/29 12:03:51;;;;;;;20.83;5.95;;;20.70;64.00;;;;;;4970021;28;89165;-68
2021/12/29 12:06:32;;;;;;;13.52;5.03;;;20.70;63.80;;;;;;4971768;28;89041;-68
2021/12/29 12:09:17;;;;;;;17.08;5.38;;;20.70;63.80;;;;;;4969636;28;87494;-68
2021/12/29 12:11:49;;;;;;;13.68;5.15;;;20.70;63.80;;;;;;4971603;28;87861;-68
2021/12/29 12:14:43;;;;;;;13.63;5.07;;;20.70;63.70;;;;;;4971479;28;88352;-67
2021/12/29 12:17:15;;;;;;;14.27;4.97;;;20.70;63.70;;;;;;4971493;28;88183;-68
2021/12/29 12:19:41;;;;;;;12.57;4.65;;;20.70;63.70;;;;;;4970535;28;87032;-68
2021/12/29 12:22:27;;;;;;;13.65;5.18;;;20.80;63.70;;;;;;4971692;28;87560;-67
2021/12/29 12:24:56;;;;;;;12.38;5.07;;;20.70;63.50;;;;;;4971451;28;87508;-68
2021/12/29 12:27:33;;;;;;;12.03;4.87;;;20.70;63.50;;;;;;4971709;28;88433;-69
2021/12/29 12:30:20;;;;;;;12.20;4.72;;;20.70;63.40;;;;;;4970863;28;88546;-68
2021/12/29 12:32:47;;;;;;;17.25;5.22;;;20.70;63.30;;;;;;4971329;28;87730;-69
2021/12/29 12:35:25;;;;;;;14.18;4.47;;;20.70;63.40;;;;;;4970948;28;88565;-67
2021/12/29 12:37:51;;;;;;;12.80;5.30;;;20.70;63.10;;;;;;4971067;28;88272;-67
2021/12/29 12:40:31;;;;;;;10.15;4.20;;;20.70;64.00;;;;;;4971350;28;87338;-67
2021/12/29 12:43:13;;;;;;;10.35;4.80;;;20.70;63.20;;;;;;4969581;28;90760;-68
2021/12/29 12:45:41;;;;;;;12.18;4.75;;;20.70;63.10;;;;;;4971084;28;88107;-67
2021/12/29 12:48:30;;;;;;;13.75;5.32;;;20.70;63.00;;;;;;4969602;28;87832;-67
2021/12/29 12:50:57;;;;;;;;;;;20.70;63.00;;;;;;4970675;28;87038;-68
2021/12/29 12:53:36;;;;;;;12.07;4.72;;;20.70;62.90;;;;;;4972538;28;86938;-68
2021/12/29 12:56:07;;;;;;;10.65;4.47;;;20.70;62.80;;;;;;4970388;28;89168;-67